createdAt,value
2018-12-27T00:00:15.686Z,17.53
2018-12-27T00:02:44.052Z,19.50
2018-12-27T00:05:12.331Z,20.30
2018-12-27T00:07:40.956Z,19.62
2018-12-27T00:10:09.301Z,20.27
2018-12-27T00:12:37.895Z,19.53
2018-12-27T00:15:08.974Z,20.63
2018-12-27T00:17:37.230Z,17.23
2018-12-27T00:20:05.511Z,16.20
2018-12-27T00:22:33.922Z,19.00
2018-12-27T00:25:04.295Z,17.13
2018-12-27T00:27:32.582Z,19.60
2018-12-27T00:30:04.033Z,21.13
2018-12-27T00:32:33.517Z,18.23
2018-12-27T00:35:03.928Z,20.93
2018-12-27T00:37:32.629Z,18.53
2018-12-27T00:40:01.240Z,18.47
2018-12-27T00:42:29.841Z,18.00
2018-12-27T00:44:58.547Z,15.63
2018-12-27T00:47:27.150Z,17.57
2018-12-27T00:49:55.757Z,18.20
2018-12-27T00:52:24.410Z,20.07
2018-12-27T00:54:53.030Z,18.20
2018-12-27T00:57:21.657Z,19.50
2018-12-27T00:59:50.295Z,17.30
2018-12-27T01:02:18.878Z,18.33
2018-12-27T01:04:47.496Z,18.17
2018-12-27T01:07:19.110Z,17.43
2018-12-27T01:09:47.702Z,16.87
2018-12-27T01:12:16.380Z,16.23
2018-12-27T01:14:44.991Z,16.03
2018-12-27T01:17:13.590Z,17.67
2018-12-27T01:19:43.190Z,19.27
2018-12-27T01:22:11.820Z,17.27
2018-12-27T01:24:40.493Z,18.43
2018-12-27T01:27:09.130Z,15.47
2018-12-27T01:29:37.767Z,17.67
2018-12-27T01:32:06.473Z,17.60
2018-12-27T01:34:35.046Z,16.77
2018-12-27T01:37:03.804Z,19.13
2018-12-27T01:39:32.386Z,15.13
2018-12-27T01:42:01.122Z,18.20
2018-12-27T01:44:29.732Z,17.10
2018-12-27T01:46:58.361Z,17.03
2018-12-27T01:49:26.970Z,15.87
2018-12-27T01:51:55.579Z,18.20
2018-12-27T01:54:24.189Z,15.30
2018-12-27T01:56:52.806Z,16.30
2018-12-27T01:59:21.411Z,20.17
2018-12-27T02:01:50.028Z,17.83
2018-12-27T02:04:18.630Z,14.17
2018-12-27T02:06:47.249Z,17.03
2018-12-27T02:09:17.877Z,17.07
2018-12-27T02:11:46.511Z,15.90
2018-12-27T02:14:15.113Z,16.30
2018-12-27T02:16:43.823Z,17.70
2018-12-27T02:19:12.429Z,18.60
2018-12-27T02:21:41.067Z,12.90
2018-12-27T02:24:09.668Z,17.57
2018-12-27T02:26:38.439Z,18.93
2018-12-27T02:29:07.044Z,17.63
2018-12-27T02:31:37.131Z,15.43
2018-12-27T02:34:07.235Z,17.07
2018-12-27T02:36:35.826Z,18.90
2018-12-27T02:39:05.571Z,17.17
2018-12-27T02:41:34.183Z,16.00
2018-12-27T02:44:02.953Z,15.13
2018-12-27T02:46:31.614Z,18.43
2018-12-27T02:49:00.304Z,13.33
2018-12-27T02:51:29.015Z,21.03
2018-12-27T02:53:57.648Z,19.50
2018-12-27T02:56:26.239Z,13.17
2018-12-27T02:58:54.933Z,18.07
2018-12-27T03:01:23.535Z,18.53
2018-12-27T03:03:53.190Z,15.97
2018-12-27T03:06:23.863Z,17.03
2018-12-27T03:08:52.659Z,17.10
2018-12-27T03:11:21.248Z,17.70
2018-12-27T03:13:49.930Z,16.37
2018-12-27T03:16:18.547Z,17.70
2018-12-27T03:18:47.168Z,17.00
2018-12-27T03:21:15.769Z,19.13
2018-12-27T03:23:44.475Z,16.53
2018-12-27T03:26:13.087Z,19.30
2018-12-27T03:28:41.779Z,18.17
2018-12-27T03:31:10.392Z,16.10
2018-12-27T03:33:39.080Z,17.10
2018-12-27T03:36:09.502Z,16.60
2018-12-27T03:38:38.128Z,18.90
2018-12-27T03:41:06.735Z,13.57
2018-12-27T03:43:35.336Z,12.70
2018-12-27T03:46:03.964Z,14.93
2018-12-27T03:48:32.717Z,17.80
2018-12-27T03:51:01.392Z,17.73
2018-12-27T03:53:29.991Z,15.87
2018-12-27T03:55:58.621Z,18.20
2018-12-27T03:58:27.221Z,12.80
2018-12-27T04:00:55.900Z,12.37
2018-12-27T04:03:24.725Z,13.20
2018-12-27T04:05:53.335Z,13.80
2018-12-27T04:08:21.915Z,17.63
2018-12-27T04:10:50.528Z,14.60
2018-12-27T04:13:20.219Z,11.07
2018-12-27T04:15:50.135Z,16.37
2018-12-27T04:18:18.581Z,13.97
2018-12-27T04:20:46.868Z,14.77
2018-12-27T04:23:15.224Z,15.67
2018-12-27T04:25:45.854Z,14.90
2018-12-27T04:28:14.235Z,15.57
2018-12-27T04:30:42.535Z,14.57
2018-12-27T04:33:13.005Z,15.30
2018-12-27T04:35:41.267Z,15.30
2018-12-27T04:38:09.611Z,16.60
2018-12-27T04:40:37.875Z,14.23
2018-12-27T04:43:06.146Z,16.83
2018-12-27T04:45:34.421Z,16.30
2018-12-27T04:48:02.699Z,14.60
2018-12-27T04:50:31.075Z,13.93
2018-12-27T04:52:59.404Z,14.43
2018-12-27T04:55:27.713Z,13.50
2018-12-27T04:57:55.993Z,16.90
2018-12-27T05:00:24.298Z,15.67
2018-12-27T05:02:52.596Z,15.40
2018-12-27T05:05:20.994Z,16.13
2018-12-27T05:07:49.277Z,11.87
2018-12-27T05:10:17.659Z,16.23
2018-12-27T05:12:45.930Z,12.80
2018-12-27T05:15:15.302Z,15.13
2018-12-27T05:17:43.579Z,10.57
2018-12-27T05:20:11.891Z,14.93
2018-12-27T05:22:40.177Z,14.50
2018-12-27T05:25:08.493Z,15.00
2018-12-27T05:27:36.762Z,18.17
2018-12-27T05:30:05.506Z,11.90
2018-12-27T05:32:33.781Z,13.70
2018-12-27T05:35:02.074Z,18.57
2018-12-27T05:37:30.393Z,16.67
2018-12-27T05:39:58.782Z,16.33
2018-12-27T05:42:27.042Z,16.23
2018-12-27T05:44:55.354Z,14.17
2018-12-27T05:47:23.637Z,14.53
2018-12-27T05:49:51.974Z,17.13
2018-12-27T05:52:20.238Z,15.80
2018-12-27T05:54:48.520Z,15.27
2018-12-27T05:57:16.770Z,13.20
2018-12-27T05:59:45.363Z,16.47
2018-12-27T06:02:13.641Z,15.80
2018-12-27T06:04:41.936Z,15.67
2018-12-27T06:07:10.193Z,16.77
2018-12-27T06:09:40.518Z,13.73
2018-12-27T06:12:08.783Z,16.27
2018-12-27T06:14:37.130Z,16.10
2018-12-27T06:17:05.385Z,13.40
2018-12-27T06:19:33.703Z,12.57
2018-12-27T06:22:01.990Z,15.80
2018-12-27T06:24:30.398Z,15.63
2018-12-27T06:26:58.650Z,15.70
2018-12-27T06:29:27.002Z,15.97
2018-12-27T06:31:55.268Z,16.30
2018-12-27T06:34:23.604Z,14.67
2018-12-27T06:36:51.894Z,17.43
2018-12-27T06:39:20.277Z,14.37
2018-12-27T06:41:48.550Z,11.90
2018-12-27T06:44:16.804Z,14.30
2018-12-27T06:46:45.076Z,21.63
2018-12-27T06:49:13.350Z,17.00
2018-12-27T06:51:42.799Z,12.90
2018-12-27T06:54:11.152Z,14.40
2018-12-27T06:56:39.411Z,15.47
2018-12-27T06:59:07.682Z,15.50
2018-12-27T07:01:35.961Z,14.90
2018-12-27T07:04:04.283Z,13.57
2018-12-27T07:06:32.557Z,17.03
2018-12-27T07:09:00.866Z,18.63
2018-12-27T07:11:29.542Z,15.57
2018-12-27T07:14:00.838Z,18.57
2018-12-27T07:16:29.100Z,17.73
2018-12-27T07:18:58.352Z,14.37
2018-12-27T07:21:26.776Z,13.90
2018-12-27T07:23:55.059Z,16.37
2018-12-27T07:26:23.329Z,13.83
2018-12-27T07:28:51.752Z,12.73
2018-12-27T07:31:20.981Z,13.10
2018-12-27T07:33:49.272Z,13.70
2018-12-27T07:36:17.642Z,13.93
2018-12-27T07:38:45.908Z,14.33
2018-12-27T07:41:14.190Z,12.27
2018-12-27T07:43:42.466Z,12.03
2018-12-27T07:46:11.129Z,11.70
2018-12-27T07:48:39.604Z,11.00
2018-12-27T07:51:07.885Z,15.90
2018-12-27T07:53:39.483Z,11.60
2018-12-27T07:56:07.754Z,14.80
2018-12-27T07:58:37.643Z,15.43
2018-12-27T08:01:05.995Z,14.57
2018-12-27T08:03:35.130Z,16.93
2018-12-27T08:06:03.399Z,16.40
2018-12-27T08:08:31.675Z,15.40
2018-12-27T08:10:59.945Z,16.00
2018-12-27T08:13:28.276Z,16.37
2018-12-27T08:15:56.643Z,18.37
2018-12-27T08:18:24.983Z,14.47
2018-12-27T08:20:53.489Z,13.47
2018-12-27T08:23:23.009Z,15.00
2018-12-27T08:25:51.530Z,14.17
2018-12-27T08:28:19.857Z,16.90
2018-12-27T08:30:48.281Z,13.77
2018-12-27T08:33:16.568Z,17.50
2018-12-27T08:35:46.866Z,17.30
2018-12-27T08:38:15.153Z,17.47
2018-12-27T08:40:43.675Z,15.17
2018-12-27T08:43:11.978Z,13.30
2018-12-27T08:45:40.405Z,18.17
2018-12-27T08:48:08.728Z,14.47
2018-12-27T08:50:37.954Z,17.10
2018-12-27T08:53:06.421Z,15.27
2018-12-27T08:55:34.929Z,14.23
2018-12-27T08:58:03.190Z,15.60
2018-12-27T09:00:31.451Z,17.93
2018-12-27T09:02:59.814Z,17.23
2018-12-27T09:05:28.447Z,17.20
2018-12-27T09:07:57.004Z,13.97
2018-12-27T09:10:25.324Z,12.93
2018-12-27T09:12:53.644Z,17.23
2018-12-27T09:15:21.939Z,13.00
2018-12-27T09:17:50.331Z,15.50
2018-12-27T09:20:18.866Z,14.40
2018-12-27T09:22:47.223Z,16.17
2018-12-27T09:25:15.541Z,16.93
2018-12-27T09:27:43.797Z,14.27
2018-12-27T09:30:12.074Z,16.17
2018-12-27T09:32:41.199Z,13.30
2018-12-27T09:35:09.883Z,17.07
2018-12-27T09:37:38.153Z,15.83
2018-12-27T09:40:06.843Z,14.33
2018-12-27T09:42:35.192Z,13.63
2018-12-27T09:45:04.288Z,13.23
2018-12-27T09:47:32.565Z,12.13
2018-12-27T09:50:00.869Z,12.50
2018-12-27T09:52:29.342Z,12.53
2018-12-27T09:54:57.744Z,11.70
2018-12-27T09:57:26.075Z,12.15
2018-12-27T09:59:54.362Z,13.60
2018-12-27T10:02:22.629Z,11.00
2018-12-27T10:04:56.654Z,10.98
2018-12-27T10:07:25.039Z,13.65
2018-12-27T10:09:53.441Z,12.90
2018-12-27T10:12:21.926Z,10.82
2018-12-27T10:14:51.460Z,12.90
2018-12-27T10:17:20.055Z,9.85
2018-12-27T10:19:50.268Z,10.20
2018-12-27T10:22:18.567Z,10.70
2018-12-27T10:24:46.856Z,11.35
2018-12-27T10:27:15.195Z,14.73
2018-12-27T10:29:43.470Z,10.10
2018-12-27T10:32:12.594Z,13.40
2018-12-27T10:34:40.899Z,11.88
2018-12-27T10:37:09.161Z,11.63
2018-12-27T10:39:38.551Z,12.03
2018-12-27T10:42:07.892Z,9.95
2018-12-27T10:44:49.522Z,11.55
2018-12-27T10:47:17.799Z,11.08
2018-12-27T10:49:46.187Z,10.35
2018-12-27T10:52:14.523Z,11.48
2018-12-27T10:54:42.936Z,10.48
2018-12-27T10:57:11.282Z,10.63
2018-12-27T10:59:39.670Z,8.85
2018-12-27T11:02:07.947Z,9.28
2018-12-27T11:04:36.301Z,9.03
2018-12-27T11:07:04.591Z,9.43
2018-12-27T11:09:32.880Z,10.45
2018-12-27T11:12:03.874Z,10.53
2018-12-27T11:14:32.240Z,8.47
2018-12-27T11:17:00.487Z,8.67
2018-12-27T11:19:28.751Z,9.57
2018-12-27T11:21:57.026Z,12.50
2018-12-27T11:24:25.347Z,10.93
2018-12-27T11:26:53.835Z,11.07
2018-12-27T11:29:22.253Z,9.53
2018-12-27T11:31:51.061Z,9.67
2018-12-27T11:34:20.653Z,10.83
2018-12-27T11:36:49.055Z,11.07
2018-12-27T11:39:17.315Z,8.27
2018-12-27T11:41:45.599Z,11.33
2018-12-27T11:44:13.859Z,13.07
2018-12-27T11:46:42.158Z,9.37
2018-12-27T11:49:10.433Z,10.90
2018-12-27T11:51:38.703Z,11.93
2018-12-27T11:54:06.982Z,11.37
2018-12-27T11:56:35.360Z,8.70
2018-12-27T11:59:03.637Z,11.37
2018-12-27T12:01:31.899Z,10.80
2018-12-27T12:04:00.372Z,10.30
2018-12-27T12:06:28.690Z,10.50
2018-12-27T12:08:57.019Z,8.60
2018-12-27T12:11:25.290Z,10.30
2018-12-27T12:13:53.568Z,11.57
2018-12-27T12:16:21.849Z,12.90
2018-12-27T12:18:50.229Z,10.67
2018-12-27T12:21:18.556Z,12.10
2018-12-27T12:23:46.873Z,8.93
2018-12-27T12:26:15.160Z,12.10
2018-12-27T12:28:43.463Z,10.53
2018-12-27T12:31:11.770Z,10.67
2018-12-27T12:33:40.104Z,11.07
2018-12-27T12:36:10.878Z,10.77
2018-12-27T12:38:38.422Z,8.40
2018-12-27T12:41:06.798Z,10.43
2018-12-27T12:43:35.129Z,10.70
2018-12-27T12:46:03.464Z,8.67
2018-12-27T12:48:31.778Z,9.03
2018-12-27T12:51:01.793Z,10.50
2018-12-27T12:53:30.058Z,11.23
2018-12-27T12:56:01.016Z,8.23
2018-12-27T12:58:29.312Z,8.23
2018-12-27T13:00:57.663Z,10.40
2018-12-27T13:03:25.927Z,9.70
2018-12-27T13:05:54.203Z,8.90
2018-12-27T13:08:22.478Z,10.97
2018-12-27T13:10:50.750Z,10.17
2018-12-27T13:13:19.013Z,11.30
2018-12-27T13:15:47.395Z,9.30
2018-12-27T13:18:15.705Z,10.33
2018-12-27T13:20:43.996Z,9.63
2018-12-27T13:23:12.912Z,9.77
2018-12-27T13:25:41.285Z,10.90
2018-12-27T13:28:12.527Z,12.83
2018-12-27T13:30:40.787Z,11.50
2018-12-27T13:33:09.061Z,10.60
2018-12-27T13:35:37.315Z,9.97
2018-12-27T13:38:05.684Z,10.03
2018-12-27T13:40:34.044Z,8.67
2018-12-27T13:43:02.447Z,11.50
2018-12-27T13:45:32.394Z,11.07
2018-12-27T13:48:00.790Z,11.13
2018-12-27T13:50:29.193Z,9.23
2018-12-27T13:52:57.607Z,10.43
2018-12-27T13:55:26.155Z,15.80
2018-12-27T13:57:56.609Z,11.67
2018-12-27T14:00:24.862Z,10.97
2018-12-27T14:02:55.476Z,10.90
2018-12-27T14:05:25.064Z,11.00
2018-12-27T14:07:54.179Z,11.10
2018-12-27T14:10:22.495Z,11.10
2018-12-27T14:12:50.842Z,10.80
2018-12-27T14:15:21.787Z,12.23
2018-12-27T14:17:50.323Z,11.53
2018-12-27T14:20:21.621Z,9.63
2018-12-27T14:22:53.122Z,12.80
2018-12-27T14:25:21.374Z,12.70
2018-12-27T14:27:49.706Z,13.10
2018-12-27T14:30:18.141Z,11.43
2018-12-27T14:32:46.589Z,11.97
2018-12-27T14:35:14.944Z,10.70
2018-12-27T14:37:43.253Z,11.30
2018-12-27T14:40:11.505Z,9.33
2018-12-27T14:42:39.820Z,11.00
2018-12-27T14:45:08.163Z,8.73
2018-12-27T14:47:36.472Z,11.07
2018-12-27T14:50:07.625Z,9.23
2018-12-27T14:52:41.691Z,11.53
2018-12-27T14:55:09.946Z,10.97
2018-12-27T14:57:38.334Z,13.93
2018-12-27T15:00:09.851Z,11.30
2018-12-27T15:02:38.156Z,13.33
2018-12-27T15:05:06.546Z,12.20
2018-12-27T15:07:34.818Z,12.80
2018-12-27T15:10:03.311Z,11.67
2018-12-27T15:12:31.649Z,8.83
2018-12-27T15:14:59.912Z,9.73
2018-12-27T15:17:28.347Z,11.27
2018-12-27T15:19:56.606Z,11.87
2018-12-27T15:22:24.976Z,11.37
2018-12-27T15:24:54.215Z,11.70
2018-12-27T15:27:22.574Z,11.77
2018-12-27T15:29:55.419Z,12.97
2018-12-27T15:32:24.671Z,13.50
2018-12-27T15:35:01.741Z,13.80
2018-12-27T15:37:30.000Z,10.90
2018-12-27T15:39:58.552Z,13.53
2018-12-27T15:42:26.858Z,16.87
2018-12-27T15:44:55.143Z,14.33
2018-12-27T15:47:23.899Z,11.27
2018-12-27T15:49:52.190Z,15.97
2018-12-27T15:52:20.829Z,13.27
2018-12-27T15:54:53.544Z,13.60
2018-12-27T15:57:21.906Z,14.43
2018-12-27T15:59:50.664Z,12.58
2018-12-27T16:02:18.942Z,16.63
2018-12-27T16:04:47.251Z,13.37
2018-12-27T16:07:15.581Z,12.60
2018-12-27T16:09:43.854Z,14.70
2018-12-27T16:12:12.991Z,10.20
2018-12-27T16:14:44.426Z,11.07
2018-12-27T16:17:11.291Z,13.53
2018-12-27T16:19:39.564Z,11.23
2018-12-27T16:22:09.003Z,10.43
2018-12-27T16:24:37.357Z,13.77
2018-12-27T16:27:05.887Z,12.83
2018-12-27T16:29:34.421Z,15.70
2018-12-27T16:32:02.725Z,12.20
2018-12-27T16:34:42.018Z,12.37
2018-12-27T16:37:10.790Z,12.40
2018-12-27T16:39:42.086Z,14.00
2018-12-27T16:42:10.356Z,15.60
2018-12-27T16:44:39.746Z,11.00
2018-12-27T16:47:08.038Z,12.63
2018-12-27T16:49:36.517Z,16.23
2018-12-27T17:16:47.566Z,15.33
2018-12-27T17:19:15.828Z,14.87
2018-12-27T17:21:44.124Z,13.93
2018-12-27T17:24:12.489Z,9.37
2018-12-27T17:26:40.740Z,13.40
2018-12-27T17:29:09.048Z,14.20
2018-12-27T17:31:37.278Z,12.70
2018-12-27T17:34:05.517Z,13.10
2018-12-27T17:36:33.738Z,13.73
2018-12-27T17:39:04.251Z,12.30
2018-12-27T17:41:32.486Z,15.90
2018-12-27T17:44:00.717Z,13.27
2018-12-27T17:46:28.947Z,16.73
2018-12-27T17:48:57.289Z,13.07
2018-12-27T17:51:25.680Z,12.83
2018-12-27T17:53:53.909Z,12.47
2018-12-27T17:56:22.166Z,13.07
2018-12-27T17:58:50.382Z,14.10
2018-12-27T18:01:18.647Z,14.50
2018-12-27T18:03:46.922Z,14.13
2018-12-27T18:06:15.287Z,15.60
2018-12-27T18:08:43.514Z,13.97
2018-12-27T18:11:11.809Z,14.00
2018-12-27T18:13:40.130Z,13.67
2018-12-27T18:16:09.068Z,12.30
2018-12-27T18:18:37.443Z,16.63
2018-12-27T18:21:05.702Z,11.77
2018-12-27T18:23:33.945Z,15.27
2018-12-27T18:26:02.199Z,10.60
2018-12-27T18:28:30.538Z,10.80
2018-12-27T18:30:58.858Z,15.48
2018-12-27T18:33:27.077Z,12.87
2018-12-27T18:35:55.324Z,15.17
2018-12-27T18:38:23.553Z,13.97
2018-12-27T18:40:51.824Z,11.87
2018-12-27T18:43:20.050Z,15.57
2018-12-27T18:45:48.356Z,16.17
2018-12-27T18:48:16.626Z,14.47
2018-12-27T18:50:44.890Z,14.13
2018-12-27T18:53:13.129Z,14.43
2018-12-27T18:55:41.588Z,18.40
2018-12-27T18:58:09.849Z,17.50
2018-12-27T19:00:38.100Z,14.03
2018-12-27T19:03:06.330Z,14.67
2018-12-27T19:05:34.570Z,13.00
2018-12-27T19:08:02.933Z,16.13
2018-12-27T19:10:31.187Z,14.87
2018-12-27T19:13:04.482Z,17.10
2018-12-27T19:15:44.828Z,17.50
2018-12-27T19:18:18.965Z,15.03
2018-12-27T19:20:51.013Z,18.23
2018-12-27T19:23:19.322Z,16.83
2018-12-27T19:25:47.541Z,17.50
2018-12-27T19:28:20.287Z,15.10
2018-12-27T19:30:48.515Z,15.83
2018-12-27T19:33:17.822Z,14.73
2018-12-27T19:35:47.641Z,15.13
2018-12-27T19:38:15.882Z,14.20
2018-12-27T19:40:44.090Z,17.70
2018-12-27T19:43:12.336Z,18.03
2018-12-27T19:45:40.562Z,18.37
2018-12-27T19:48:08.795Z,18.33
2018-12-27T19:50:37.105Z,14.13
2018-12-27T19:53:07.242Z,14.17
2018-12-27T19:55:35.473Z,15.13
2018-12-27T19:58:03.810Z,14.43
2018-12-27T20:00:32.037Z,13.53
2018-12-27T20:03:00.257Z,17.13
2018-12-27T20:05:28.580Z,17.13
2018-12-27T20:07:59.393Z,17.13
2018-12-27T20:10:26.778Z,17.77
2018-12-27T20:12:55.346Z,15.00
2018-12-27T20:15:23.643Z,21.43
2018-12-27T20:17:52.108Z,18.47
2018-12-27T20:20:20.372Z,16.47
2018-12-27T20:22:48.730Z,15.57
2018-12-27T20:25:17.034Z,13.90
2018-12-27T20:27:45.356Z,15.43
2018-12-27T20:30:13.677Z,17.20
2018-12-27T20:32:42.040Z,14.50
2018-12-27T20:35:10.345Z,15.37
2018-12-27T20:37:38.577Z,17.27
2018-12-27T20:40:07.093Z,16.67
2018-12-27T20:42:35.359Z,16.13
2018-12-27T20:45:03.670Z,18.87
2018-12-27T20:47:31.897Z,14.70
2018-12-27T20:50:00.171Z,16.60
2018-12-27T20:52:28.858Z,16.00
2018-12-27T20:54:57.261Z,18.37
2018-12-27T20:57:25.531Z,17.00
2018-12-27T20:59:53.799Z,16.30
2018-12-27T21:02:22.158Z,18.57
2018-12-27T21:04:50.384Z,17.43
2018-12-27T21:07:18.649Z,19.37
2018-12-27T21:09:46.961Z,13.57
2018-12-27T21:12:15.185Z,16.50
2018-12-27T21:14:43.445Z,18.90
2018-12-27T21:17:11.707Z,13.17
2018-12-27T21:19:39.974Z,15.80
2018-12-27T21:22:08.331Z,16.37
2018-12-27T21:24:36.647Z,19.43
2018-12-27T21:27:05.055Z,15.13
2018-12-27T21:29:33.389Z,18.13
2018-12-27T21:32:01.621Z,20.87
2018-12-27T21:34:29.918Z,20.30
2018-12-27T21:36:58.218Z,20.43
2018-12-27T21:39:26.476Z,15.13
2018-12-27T21:42:00.068Z,15.33
2018-12-27T21:44:28.502Z,20.53
2018-12-27T21:46:56.851Z,19.10
2018-12-27T21:49:25.136Z,15.53
2018-12-27T21:51:53.520Z,19.63
2018-12-27T21:54:21.782Z,18.23
2018-12-27T21:56:50.047Z,14.13
2018-12-27T21:59:18.522Z,20.03
2018-12-27T22:01:46.752Z,19.57
2018-12-27T22:04:14.988Z,16.00
2018-12-27T22:06:43.250Z,15.10
2018-12-27T22:09:11.476Z,17.90
2018-12-27T22:11:39.729Z,16.87
2018-12-27T22:14:07.973Z,17.03
2018-12-27T22:16:36.209Z,19.20
2018-12-27T22:19:04.454Z,16.13
2018-12-27T22:21:32.692Z,19.60
2018-12-27T22:24:00.933Z,20.33
2018-12-27T22:26:29.173Z,18.77
2018-12-27T22:28:57.405Z,15.13
2018-12-27T22:31:25.659Z,18.50
2018-12-27T22:33:53.937Z,17.73
2018-12-27T22:36:22.212Z,25.03
2018-12-27T22:38:50.518Z,17.80
2018-12-27T22:41:18.754Z,21.57
2018-12-27T22:43:47.036Z,24.03
2018-12-27T22:46:15.309Z,19.93
2018-12-27T22:48:43.541Z,17.27
2018-12-27T22:51:11.779Z,20.00
2018-12-27T22:53:40.025Z,19.07
2018-12-27T22:56:08.259Z,24.37
2018-12-27T22:58:36.493Z,21.30
2018-12-27T23:01:04.790Z,19.27
2018-12-27T23:03:33.024Z,19.30
2018-12-27T23:06:01.330Z,17.77
2018-12-27T23:08:29.570Z,21.30
2018-12-27T23:10:57.789Z,18.47
2018-12-27T23:13:26.034Z,21.57
2018-12-27T23:15:54.264Z,20.57
2018-12-27T23:18:22.554Z,18.83
2018-12-27T23:20:50.773Z,21.07
2018-12-27T23:23:19.043Z,19.33
2018-12-27T23:25:47.336Z,18.20
2018-12-27T23:28:15.581Z,20.87
2018-12-27T23:30:43.794Z,19.10
2018-12-27T23:33:12.059Z,21.73
2018-12-27T23:35:40.282Z,22.70
2018-12-27T23:38:08.516Z,18.23
2018-12-27T23:40:36.766Z,19.57
2018-12-27T23:43:05.053Z,22.87
2018-12-27T23:45:33.290Z,22.23
2018-12-27T23:48:01.510Z,22.60
2018-12-27T23:50:29.768Z,21.40
2018-12-27T23:52:57.997Z,21.33
2018-12-27T23:55:26.256Z,23.43
2018-12-27T23:57:54.490Z,23.07
